Terminal Aerodrome Forecast
Issued by NWS

Home | Current Version | Previous Version | Text Only | Print | Product List | Glossary On
Versions: 1 2 3 4 5 6 7 8 9 10 11 12 13
000
FTUS45 KCYS 260531
TAFAIA
TAF
KAIA 260531Z 2606/2706 34007KT P6SM BKN090
     FM261500 03010G20KT P6SM BKN080
     FM261900 12013G24KT P6SM BKN080
     FM270000 09012KT P6SM VCTS BKN040CB=

USA.gov is the U.S. government's official web portal to all federal, state and local government web resources and services.